sensor_id;sensor_type;location;lat;lon;timestamp;P1;durP1;ratioP1;P2;durP2;ratioP2
80400;SDS011;69727;53.132;8.230;2023-10-13T00:01:30;45.67;;;21.17;;
80400;SDS011;69727;53.132;8.230;2023-10-13T00:03:56;52.47;;;19.70;;
80400;SDS011;69727;53.132;8.230;2023-10-13T00:06:21;50.00;;;20.30;;
80400;SDS011;69727;53.132;8.230;2023-10-13T00:08:46;44.83;;;18.77;;
80400;SDS011;69727;53.132;8.230;2023-10-13T00:11:13;58.85;;;21.73;;
80400;SDS011;69727;53.132;8.230;2023-10-13T00:13:38;52.25;;;19.92;;
80400;SDS011;69727;53.132;8.230;2023-10-13T00:16:16;52.47;;;21.35;;
80400;SDS011;69727;53.132;8.230;2023-10-13T00:18:46;62.03;;;21.17;;
80400;SDS011;69727;53.132;8.230;2023-10-13T00:21:13;63.55;;;22.70;;
80400;SDS011;69727;53.132;8.230;2023-10-13T00:23:40;51.55;;;21.13;;
80400;SDS011;69727;53.132;8.230;2023-10-13T00:26:18;68.82;;;25.30;;
80400;SDS011;69727;53.132;8.230;2023-10-13T00:28:48;56.22;;;23.08;;
80400;SDS011;69727;53.132;8.230;2023-10-13T00:31:23;76.50;;;23.92;;
80400;SDS011;69727;53.132;8.230;2023-10-13T00:33:51;57.42;;;23.35;;
80400;SDS011;69727;53.132;8.230;2023-10-13T00:36:20;74.20;;;23.35;;
80400;SDS011;69727;53.132;8.230;2023-10-13T00:38:46;63.15;;;23.35;;
80400;SDS011;69727;53.132;8.230;2023-10-13T00:41:17;64.07;;;24.02;;
80400;SDS011;69727;53.132;8.230;2023-10-13T00:43:58;60.72;;;22.92;;
80400;SDS011;69727;53.132;8.230;2023-10-13T00:46:33;65.95;;;24.48;;
80400;SDS011;69727;53.132;8.230;2023-10-13T00:49:00;68.43;;;24.10;;
80400;SDS011;69727;53.132;8.230;2023-10-13T00:51:29;62.80;;;23.23;;
80400;SDS011;69727;53.132;8.230;2023-10-13T00:54:05;73.25;;;27.20;;
80400;SDS011;69727;53.132;8.230;2023-10-13T00:56:42;73.75;;;25.85;;
80400;SDS011;69727;53.132;8.230;2023-10-13T00:59:34;78.82;;;27.08;;
80400;SDS011;69727;53.132;8.230;2023-10-13T01:02:01;74.75;;;27.15;;
80400;SDS011;69727;53.132;8.230;2023-10-13T01:04:46;94.15;;;28.17;;
80400;SDS011;69727;53.132;8.230;2023-10-13T01:07:12;68.93;;;25.67;;
80400;SDS011;69727;53.132;8.230;2023-10-13T01:09:41;89.15;;;26.80;;
80400;SDS011;69727;53.132;8.230;2023-10-13T01:12:07;78.18;;;26.67;;
80400;SDS011;69727;53.132;8.230;2023-10-13T01:14:33;82.18;;;26.75;;
80400;SDS011;69727;53.132;8.230;2023-10-13T01:17:00;90.75;;;28.95;;
80400;SDS011;69727;53.132;8.230;2023-10-13T01:19:27;70.03;;;27.80;;
80400;SDS011;69727;53.132;8.230;2023-10-13T01:21:53;72.47;;;26.35;;
80400;SDS011;69727;53.132;8.230;2023-10-13T01:24:37;69.93;;;26.60;;
80400;SDS011;69727;53.132;8.230;2023-10-13T01:27:03;75.78;;;26.23;;
80400;SDS011;69727;53.132;8.230;2023-10-13T01:29:40;71.43;;;26.17;;
80400;SDS011;69727;53.132;8.230;2023-10-13T01:32:05;88.25;;;27.02;;
80400;SDS011;69727;53.132;8.230;2023-10-13T01:34:30;69.20;;;25.83;;
80400;SDS011;69727;53.132;8.230;2023-10-13T01:36:58;65.03;;;25.20;;
80400;SDS011;69727;53.132;8.230;2023-10-13T01:39:30;60.95;;;25.10;;
80400;SDS011;69727;53.132;8.230;2023-10-13T01:41:56;72.57;;;26.30;;
80400;SDS011;69727;53.132;8.230;2023-10-13T01:44:25;65.90;;;25.75;;
80400;SDS011;69727;53.132;8.230;2023-10-13T01:46:53;62.70;;;25.58;;
80400;SDS011;69727;53.132;8.230;2023-10-13T01:49:18;76.13;;;26.85;;
80400;SDS011;69727;53.132;8.230;2023-10-13T01:51:44;76.80;;;26.60;;
80400;SDS011;69727;53.132;8.230;2023-10-13T01:54:13;70.13;;;26.25;;
80400;SDS011;69727;53.132;8.230;2023-10-13T01:56:40;68.97;;;25.10;;
80400;SDS011;69727;53.132;8.230;2023-10-13T01:59:12;80.07;;;27.05;;
80400;SDS011;69727;53.132;8.230;2023-10-13T02:01:38;75.72;;;26.90;;
80400;SDS011;69727;53.132;8.230;2023-10-13T02:04:05;68.75;;;27.20;;
80400;SDS011;69727;53.132;8.230;2023-10-13T02:06:32;71.22;;;26.27;;
80400;SDS011;69727;53.132;8.230;2023-10-13T02:09:04;65.55;;;25.35;;
80400;SDS011;69727;53.132;8.230;2023-10-13T02:11:51;59.85;;;24.90;;
80400;SDS011;69727;53.132;8.230;2023-10-13T02:14:21;72.03;;;26.30;;
80400;SDS011;69727;53.132;8.230;2023-10-13T02:16:51;66.28;;;26.27;;
80400;SDS011;69727;53.132;8.230;2023-10-13T02:19:20;74.10;;;27.48;;
80400;SDS011;69727;53.132;8.230;2023-10-13T02:21:46;63.55;;;25.10;;
80400;SDS011;69727;53.132;8.230;2023-10-13T02:24:23;78.60;;;27.02;;
80400;SDS011;69727;53.132;8.230;2023-10-13T02:26:54;73.10;;;28.17;;
80400;SDS011;69727;53.132;8.230;2023-10-13T02:29:21;61.17;;;25.70;;
80400;SDS011;69727;53.132;8.230;2023-10-13T02:31:47;71.60;;;27.50;;
80400;SDS011;69727;53.132;8.230;2023-10-13T02:34:19;85.22;;;27.17;;
80400;SDS011;69727;53.132;8.230;2023-10-13T02:36:47;69.15;;;26.90;;
80400;SDS011;69727;53.132;8.230;2023-10-13T02:39:16;70.28;;;26.90;;
80400;SDS011;69727;53.132;8.230;2023-10-13T02:41:49;71.25;;;27.70;;
80400;SDS011;69727;53.132;8.230;2023-10-13T02:44:15;68.90;;;26.73;;
80400;SDS011;69727;53.132;8.230;2023-10-13T02:46:54;63.13;;;25.55;;
80400;SDS011;69727;53.132;8.230;2023-10-13T02:49:25;67.95;;;27.75;;
80400;SDS011;69727;53.132;8.230;2023-10-13T02:51:51;71.78;;;26.58;;
80400;SDS011;69727;53.132;8.230;2023-10-13T02:54:25;69.60;;;26.75;;
80400;SDS011;69727;53.132;8.230;2023-10-13T02:56:56;80.88;;;28.10;;
80400;SDS011;69727;53.132;8.230;2023-10-13T02:59:28;70.03;;;26.65;;
80400;SDS011;69727;53.132;8.230;2023-10-13T03:02:12;74.88;;;27.00;;
80400;SDS011;69727;53.132;8.230;2023-10-13T03:04:51;74.90;;;28.92;;
80400;SDS011;69727;53.132;8.230;2023-10-13T03:07:24;63.00;;;25.33;;
80400;SDS011;69727;53.132;8.230;2023-10-13T03:09:53;73.30;;;27.23;;
80400;SDS011;69727;53.132;8.230;2023-10-13T03:12:22;62.05;;;26.30;;
80400;SDS011;69727;53.132;8.230;2023-10-13T03:14:49;74.65;;;27.25;;
80400;SDS011;69727;53.132;8.230;2023-10-13T03:17:21;63.17;;;24.40;;
80400;SDS011;69727;53.132;8.230;2023-10-13T03:19:58;83.25;;;26.88;;
80400;SDS011;69727;53.132;8.230;2023-10-13T03:22:24;68.82;;;27.80;;
80400;SDS011;69727;53.132;8.230;2023-10-13T03:24:56;76.32;;;27.27;;
80400;SDS011;69727;53.132;8.230;2023-10-13T03:27:25;71.78;;;27.08;;
80400;SDS011;69727;53.132;8.230;2023-10-13T03:30:05;85.68;;;26.40;;
80400;SDS011;69727;53.132;8.230;2023-10-13T03:32:36;77.82;;;27.40;;
80400;SDS011;69727;53.132;8.230;2023-10-13T03:35:08;61.03;;;25.02;;
80400;SDS011;69727;53.132;8.230;2023-10-13T03:37:38;59.15;;;24.98;;
80400;SDS011;69727;53.132;8.230;2023-10-13T03:40:05;63.70;;;25.60;;
80400;SDS011;69727;53.132;8.230;2023-10-13T03:42:50;54.33;;;23.58;;
80400;SDS011;69727;53.132;8.230;2023-10-13T03:45:34;50.08;;;22.63;;
80400;SDS011;69727;53.132;8.230;2023-10-13T03:48:04;56.13;;;23.70;;
80400;SDS011;69727;53.132;8.230;2023-10-13T03:50:35;50.30;;;23.27;;
80400;SDS011;69727;53.132;8.230;2023-10-13T03:53:12;67.88;;;23.20;;
80400;SDS011;69727;53.132;8.230;2023-10-13T03:55:38;56.20;;;22.95;;
80400;SDS011;69727;53.132;8.230;2023-10-13T03:58:04;48.95;;;20.63;;
80400;SDS011;69727;53.132;8.230;2023-10-13T04:00:30;46.67;;;19.87;;
80400;SDS011;69727;53.132;8.230;2023-10-13T04:02:57;47.17;;;20.38;;
80400;SDS011;69727;53.132;8.230;2023-10-13T04:05:34;52.67;;;20.52;;
80400;SDS011;69727;53.132;8.230;2023-10-13T04:08:07;50.88;;;20.65;;
80400;SDS011;69727;53.132;8.230;2023-10-13T04:10:53;48.38;;;21.38;;
80400;SDS011;69727;53.132;8.230;2023-10-13T04:13:20;50.47;;;20.73;;
80400;SDS011;69727;53.132;8.230;2023-10-13T04:16:13;50.80;;;20.65;;
80400;SDS011;69727;53.132;8.230;2023-10-13T04:18:47;52.05;;;21.08;;
80400;SDS011;69727;53.132;8.230;2023-10-13T04:21:24;49.40;;;20.70;;
80400;SDS011;69727;53.132;8.230;2023-10-13T04:24:22;49.55;;;21.15;;
80400;SDS011;69727;53.132;8.230;2023-10-13T04:27:00;51.80;;;20.80;;
80400;SDS011;69727;53.132;8.230;2023-10-13T04:29:54;54.25;;;20.33;;
80400;SDS011;69727;53.132;8.230;2023-10-13T04:32:35;44.03;;;20.58;;
80400;SDS011;69727;53.132;8.230;2023-10-13T04:35:06;47.85;;;20.85;;
80400;SDS011;69727;53.132;8.230;2023-10-13T04:37:37;45.60;;;20.48;;
80400;SDS011;69727;53.132;8.230;2023-10-13T04:40:17;49.30;;;21.35;;
80400;SDS011;69727;53.132;8.230;2023-10-13T04:42:44;49.38;;;20.58;;
80400;SDS011;69727;53.132;8.230;2023-10-13T04:45:15;46.78;;;20.45;;
80400;SDS011;69727;53.132;8.230;2023-10-13T04:48:01;40.80;;;19.42;;
80400;SDS011;69727;53.132;8.230;2023-10-13T04:50:40;50.40;;;21.52;;
80400;SDS011;69727;53.132;8.230;2023-10-13T04:53:15;46.15;;;19.95;;
80400;SDS011;69727;53.132;8.230;2023-10-13T04:55:58;45.38;;;20.40;;
80400;SDS011;69727;53.132;8.230;2023-10-13T04:58:32;48.60;;;20.50;;
80400;SDS011;69727;53.132;8.230;2023-10-13T05:01:04;49.20;;;21.23;;
80400;SDS011;69727;53.132;8.230;2023-10-13T05:04:08;50.00;;;20.10;;
80400;SDS011;69727;53.132;8.230;2023-10-13T05:06:47;50.08;;;20.63;;
80400;SDS011;69727;53.132;8.230;2023-10-13T05:09:41;45.92;;;21.13;;
80400;SDS011;69727;53.132;8.230;2023-10-13T05:12:25;54.72;;;21.10;;
80400;SDS011;69727;53.132;8.230;2023-10-13T05:15:09;50.05;;;21.77;;
80400;SDS011;69727;53.132;8.230;2023-10-13T05:17:53;46.50;;;20.40;;
80400;SDS011;69727;53.132;8.230;2023-10-13T05:20:41;48.88;;;20.42;;
80400;SDS011;69727;53.132;8.230;2023-10-13T05:23:25;54.17;;;20.75;;
80400;SDS011;69727;53.132;8.230;2023-10-13T05:26:09;48.97;;;20.30;;
80400;SDS011;69727;53.132;8.230;2023-10-13T05:28:57;50.95;;;20.90;;
80400;SDS011;69727;53.132;8.230;2023-10-13T05:31:41;50.78;;;20.30;;
80400;SDS011;69727;53.132;8.230;2023-10-13T05:34:32;45.10;;;18.35;;
80400;SDS011;69727;53.132;8.230;2023-10-13T05:37:16;49.22;;;20.23;;
80400;SDS011;69727;53.132;8.230;2023-10-13T05:40:00;44.90;;;18.70;;
80400;SDS011;69727;53.132;8.230;2023-10-13T05:42:44;49.75;;;20.33;;
80400;SDS011;69727;53.132;8.230;2023-10-13T05:45:28;46.92;;;20.63;;
80400;SDS011;69727;53.132;8.230;2023-10-13T05:48:16;43.40;;;19.65;;
80400;SDS011;69727;53.132;8.230;2023-10-13T05:50:49;46.42;;;20.13;;
80400;SDS011;69727;53.132;8.230;2023-10-13T05:53:22;50.47;;;19.88;;
80400;SDS011;69727;53.132;8.230;2023-10-13T05:56:06;47.47;;;20.45;;
80400;SDS011;69727;53.132;8.230;2023-10-13T06:01:51;46.08;;;18.20;;
80400;SDS011;69727;53.132;8.230;2023-10-13T06:04:34;49.05;;;19.27;;
80400;SDS011;69727;53.132;8.230;2023-10-13T06:07:18;46.20;;;20.10;;
80400;SDS011;69727;53.132;8.230;2023-10-13T06:10:02;43.85;;;19.17;;
80400;SDS011;69727;53.132;8.230;2023-10-13T06:12:48;44.17;;;18.02;;
80400;SDS011;69727;53.132;8.230;2023-10-13T06:15:35;43.13;;;18.85;;
80400;SDS011;69727;53.132;8.230;2023-10-13T06:18:19;46.25;;;18.33;;
80400;SDS011;69727;53.132;8.230;2023-10-13T06:21:03;44.67;;;18.95;;
80400;SDS011;69727;53.132;8.230;2023-10-13T06:23:47;51.45;;;20.10;;
80400;SDS011;69727;53.132;8.230;2023-10-13T06:26:31;81.90;;;36.78;;
80400;SDS011;69727;53.132;8.230;2023-10-13T06:29:15;44.85;;;17.85;;
80400;SDS011;69727;53.132;8.230;2023-10-13T06:31:44;42.97;;;17.42;;
80400;SDS011;69727;53.132;8.230;2023-10-13T06:34:11;41.85;;;17.15;;
80400;SDS011;69727;53.132;8.230;2023-10-13T06:36:40;35.30;;;16.83;;
80400;SDS011;69727;53.132;8.230;2023-10-13T06:39:06;36.92;;;16.85;;
80400;SDS011;69727;53.132;8.230;2023-10-13T06:41:51;38.17;;;15.43;;
80400;SDS011;69727;53.132;8.230;2023-10-13T06:44:16;40.85;;;15.88;;
80400;SDS011;69727;53.132;8.230;2023-10-13T06:46:41;34.45;;;14.52;;
80400;SDS011;69727;53.132;8.230;2023-10-13T06:49:08;30.17;;;13.50;;
80400;SDS011;69727;53.132;8.230;2023-10-13T06:51:35;30.45;;;13.88;;
80400;SDS011;69727;53.132;8.230;2023-10-13T06:54:03;30.63;;;13.57;;
80400;SDS011;69727;53.132;8.230;2023-10-13T06:56:29;31.33;;;13.18;;
80400;SDS011;69727;53.132;8.230;2023-10-13T06:58:54;34.40;;;12.30;;
80400;SDS011;69727;53.132;8.230;2023-10-13T07:01:29;25.23;;;12.68;;
80400;SDS011;69727;53.132;8.230;2023-10-13T07:03:54;26.90;;;12.38;;
80400;SDS011;69727;53.132;8.230;2023-10-13T07:06:26;32.85;;;14.25;;
80400;SDS011;69727;53.132;8.230;2023-10-13T07:08:52;28.38;;;13.00;;
80400;SDS011;69727;53.132;8.230;2023-10-13T07:11:18;25.80;;;12.60;;
80400;SDS011;69727;53.132;8.230;2023-10-13T07:13:58;31.27;;;14.38;;
80400;SDS011;69727;53.132;8.230;2023-10-13T07:19:27;32.92;;;14.85;;
80400;SDS011;69727;53.132;8.230;2023-10-13T07:21:54;27.92;;;14.65;;
80400;SDS011;69727;53.132;8.230;2023-10-13T07:24:41;29.35;;;13.55;;
80400;SDS011;69727;53.132;8.230;2023-10-13T07:27:07;31.27;;;14.97;;
80400;SDS011;69727;53.132;8.230;2023-10-13T07:29:32;33.17;;;15.55;;
80400;SDS011;69727;53.132;8.230;2023-10-13T07:32:01;29.80;;;14.88;;
80400;SDS011;69727;53.132;8.230;2023-10-13T07:34:37;33.45;;;15.40;;
80400;SDS011;69727;53.132;8.230;2023-10-13T07:37:04;30.90;;;15.25;;
80400;SDS011;69727;53.132;8.230;2023-10-13T07:39:37;29.33;;;15.70;;
80400;SDS011;69727;53.132;8.230;2023-10-13T07:42:05;32.88;;;16.25;;
80400;SDS011;69727;53.132;8.230;2023-10-13T07:44:33;38.20;;;16.38;;
80400;SDS011;69727;53.132;8.230;2023-10-13T07:47:10;38.17;;;17.58;;
80400;SDS011;69727;53.132;8.230;2023-10-13T07:49:36;44.58;;;18.13;;
80400;SDS011;69727;53.132;8.230;2023-10-13T07:52:07;36.50;;;17.80;;
80400;SDS011;69727;53.132;8.230;2023-10-13T07:54:45;33.38;;;15.98;;
80400;SDS011;69727;53.132;8.230;2023-10-13T07:57:15;36.03;;;17.33;;
80400;SDS011;69727;53.132;8.230;2023-10-13T07:59:42;36.35;;;16.23;;
80400;SDS011;69727;53.132;8.230;2023-10-13T08:02:17;37.15;;;17.13;;
80400;SDS011;69727;53.132;8.230;2023-10-13T08:05:02;32.58;;;14.50;;
80400;SDS011;69727;53.132;8.230;2023-10-13T08:07:33;30.95;;;14.25;;
80400;SDS011;69727;53.132;8.230;2023-10-13T08:10:00;30.90;;;13.15;;
80400;SDS011;69727;53.132;8.230;2023-10-13T08:12:26;22.73;;;11.55;;
80400;SDS011;69727;53.132;8.230;2023-10-13T08:14:52;21.08;;;10.50;;
80400;SDS011;69727;53.132;8.230;2023-10-13T08:17:37;24.67;;;9.98;;
80400;SDS011;69727;53.132;8.230;2023-10-13T08:20:02;20.50;;;9.53;;
80400;SDS011;69727;53.132;8.230;2023-10-13T08:22:37;17.25;;;9.07;;
80400;SDS011;69727;53.132;8.230;2023-10-13T08:25:03;22.77;;;9.63;;
80400;SDS011;69727;53.132;8.230;2023-10-13T08:27:48;21.15;;;9.15;;
80400;SDS011;69727;53.132;8.230;2023-10-13T08:30:14;18.00;;;8.23;;
80400;SDS011;69727;53.132;8.230;2023-10-13T08:32:54;18.23;;;7.90;;
80400;SDS011;69727;53.132;8.230;2023-10-13T08:35:20;14.60;;;7.87;;
80400;SDS011;69727;53.132;8.230;2023-10-13T08:37:54;15.35;;;7.82;;
80400;SDS011;69727;53.132;8.230;2023-10-13T08:40:26;16.63;;;7.18;;
80400;SDS011;69727;53.132;8.230;2023-10-13T08:43:31;17.60;;;7.72;;
80400;SDS011;69727;53.132;8.230;2023-10-13T08:46:08;19.23;;;7.20;;
80400;SDS011;69727;53.132;8.230;2023-10-13T08:48:34;19.65;;;8.20;;
80400;SDS011;69727;53.132;8.230;2023-10-13T08:51:01;16.05;;;7.72;;
80400;SDS011;69727;53.132;8.230;2023-10-13T08:53:36;16.20;;;7.28;;
80400;SDS011;69727;53.132;8.230;2023-10-13T08:56:17;21.75;;;8.00;;
80400;SDS011;69727;53.132;8.230;2023-10-13T09:01:18;17.70;;;8.02;;
80400;SDS011;69727;53.132;8.230;2023-10-13T09:04:03;17.63;;;7.88;;
80400;SDS011;69727;53.132;8.230;2023-10-13T09:09:25;20.60;;;8.63;;
80400;SDS011;69727;53.132;8.230;2023-10-13T09:12:15;17.13;;;8.27;;
80400;SDS011;69727;53.132;8.230;2023-10-13T09:14:50;21.13;;;8.05;;
80400;SDS011;69727;53.132;8.230;2023-10-13T09:17:23;17.73;;;7.82;;
80400;SDS011;69727;53.132;8.230;2023-10-13T09:19:59;20.00;;;8.07;;
80400;SDS011;69727;53.132;8.230;2023-10-13T09:22:45;19.80;;;8.55;;
80400;SDS011;69727;53.132;8.230;2023-10-13T09:25:32;22.17;;;9.80;;
80400;SDS011;69727;53.132;8.230;2023-10-13T09:28:02;29.25;;;9.73;;
80400;SDS011;69727;53.132;8.230;2023-10-13T09:30:35;20.73;;;9.13;;
80400;SDS011;69727;53.132;8.230;2023-10-13T09:33:07;20.73;;;8.82;;
80400;SDS011;69727;53.132;8.230;2023-10-13T09:35:40;22.15;;;9.32;;
80400;SDS011;69727;53.132;8.230;2023-10-13T09:38:08;19.80;;;8.65;;
80400;SDS011;69727;53.132;8.230;2023-10-13T09:40:36;20.65;;;9.45;;
80400;SDS011;69727;53.132;8.230;2023-10-13T09:43:11;20.33;;;9.45;;
80400;SDS011;69727;53.132;8.230;2023-10-13T09:45:40;23.80;;;9.38;;
80400;SDS011;69727;53.132;8.230;2023-10-13T09:48:22;19.05;;;8.63;;
80400;SDS011;69727;53.132;8.230;2023-10-13T09:53:24;19.45;;;8.57;;
80400;SDS011;69727;53.132;8.230;2023-10-13T09:55:56;18.98;;;8.85;;
80400;SDS011;69727;53.132;8.230;2023-10-13T09:58:58;17.88;;;9.02;;
80400;SDS011;69727;53.132;8.230;2023-10-13T10:01:33;21.42;;;9.73;;
80400;SDS011;69727;53.132;8.230;2023-10-13T10:04:08;23.95;;;9.50;;
80400;SDS011;69727;53.132;8.230;2023-10-13T10:07:06;22.95;;;9.90;;
80400;SDS011;69727;53.132;8.230;2023-10-13T10:09:32;22.35;;;10.60;;
80400;SDS011;69727;53.132;8.230;2023-10-13T10:17:53;21.10;;;10.65;;
80400;SDS011;69727;53.132;8.230;2023-10-13T10:20:27;20.73;;;10.90;;
80400;SDS011;69727;53.132;8.230;2023-10-13T10:23:25;21.25;;;11.13;;
80400;SDS011;69727;53.132;8.230;2023-10-13T10:25:53;21.70;;;11.15;;
80400;SDS011;69727;53.132;8.230;2023-10-13T10:28:39;25.15;;;10.80;;
80400;SDS011;69727;53.132;8.230;2023-10-13T10:31:07;20.75;;;10.80;;
80400;SDS011;69727;53.132;8.230;2023-10-13T10:33:37;18.00;;;11.18;;
80400;SDS011;69727;53.132;8.230;2023-10-13T10:36:06;20.23;;;10.63;;
80400;SDS011;69727;53.132;8.230;2023-10-13T10:38:54;18.45;;;10.35;;
80400;SDS011;69727;53.132;8.230;2023-10-13T10:41:27;17.05;;;10.27;;
80400;SDS011;69727;53.132;8.230;2023-10-13T10:44:10;17.80;;;9.88;;
80400;SDS011;69727;53.132;8.230;2023-10-13T10:46:48;20.08;;;9.98;;
80400;SDS011;69727;53.132;8.230;2023-10-13T10:49:23;17.92;;;9.77;;
80400;SDS011;69727;53.132;8.230;2023-10-13T10:51:58;18.13;;;10.10;;
80400;SDS011;69727;53.132;8.230;2023-10-13T10:54:29;18.98;;;10.40;;
80400;SDS011;69727;53.132;8.230;2023-10-13T10:59:36;14.10;;;8.88;;
80400;SDS011;69727;53.132;8.230;2023-10-13T11:02:02;19.45;;;9.43;;
80400;SDS011;69727;53.132;8.230;2023-10-13T11:04:28;14.73;;;8.25;;
80400;SDS011;69727;53.132;8.230;2023-10-13T11:06:59;17.02;;;8.13;;
80400;SDS011;69727;53.132;8.230;2023-10-13T11:09:30;17.42;;;9.25;;
80400;SDS011;69727;53.132;8.230;2023-10-13T11:14:39;20.63;;;9.43;;
80400;SDS011;69727;53.132;8.230;2023-10-13T11:17:05;19.23;;;8.57;;
80400;SDS011;69727;53.132;8.230;2023-10-13T11:19:45;19.08;;;8.80;;
80400;SDS011;69727;53.132;8.230;2023-10-13T11:22:10;21.92;;;8.50;;
80400;SDS011;69727;53.132;8.230;2023-10-13T11:24:40;19.45;;;8.07;;
80400;SDS011;69727;53.132;8.230;2023-10-13T11:27:16;16.73;;;8.43;;
80400;SDS011;69727;53.132;8.230;2023-10-13T11:29:46;14.73;;;7.40;;
80400;SDS011;69727;53.132;8.230;2023-10-13T11:32:17;18.80;;;7.72;;
80400;SDS011;69727;53.132;8.230;2023-10-13T11:34:45;18.45;;;7.68;;
80400;SDS011;69727;53.132;8.230;2023-10-13T11:37:10;15.10;;;7.37;;
80400;SDS011;69727;53.132;8.230;2023-10-13T11:39:53;13.95;;;6.90;;
80400;SDS011;69727;53.132;8.230;2023-10-13T11:42:18;16.63;;;7.07;;
80400;SDS011;69727;53.132;8.230;2023-10-13T11:44:44;16.60;;;6.93;;
80400;SDS011;69727;53.132;8.230;2023-10-13T11:47:09;11.43;;;6.35;;
80400;SDS011;69727;53.132;8.230;2023-10-13T11:49:53;17.67;;;6.10;;
80400;SDS011;69727;53.132;8.230;2023-10-13T11:52:23;20.45;;;6.45;;
80400;SDS011;69727;53.132;8.230;2023-10-13T11:54:51;15.55;;;6.57;;
80400;SDS011;69727;53.132;8.230;2023-10-13T11:57:16;21.15;;;6.60;;
80400;SDS011;69727;53.132;8.230;2023-10-13T11:59:44;15.80;;;5.75;;
80400;SDS011;69727;53.132;8.230;2023-10-13T12:02:17;14.90;;;6.43;;
80400;SDS011;69727;53.132;8.230;2023-10-13T12:04:52;14.30;;;6.43;;
80400;SDS011;69727;53.132;8.230;2023-10-13T12:07:19;14.73;;;6.10;;
80400;SDS011;69727;53.132;8.230;2023-10-13T12:09:53;15.07;;;5.78;;
80400;SDS011;69727;53.132;8.230;2023-10-13T12:12:21;15.73;;;6.10;;
80400;SDS011;69727;53.132;8.230;2023-10-13T12:14:46;18.02;;;5.55;;
80400;SDS011;69727;53.132;8.230;2023-10-13T12:17:24;11.45;;;5.22;;
80400;SDS011;69727;53.132;8.230;2023-10-13T12:20:02;14.75;;;5.18;;
80400;SDS011;69727;53.132;8.230;2023-10-13T12:22:49;13.18;;;5.32;;
80400;SDS011;69727;53.132;8.230;2023-10-13T12:25:20;10.02;;;5.07;;
80400;SDS011;69727;53.132;8.230;2023-10-13T12:27:51;14.85;;;5.60;;
80400;SDS011;69727;53.132;8.230;2023-10-13T12:30:22;15.73;;;4.97;;
80400;SDS011;69727;53.132;8.230;2023-10-13T12:33:00;16.85;;;5.43;;
80400;SDS011;69727;53.132;8.230;2023-10-13T12:35:33;14.35;;;5.10;;
80400;SDS011;69727;53.132;8.230;2023-10-13T12:38:11;12.48;;;4.57;;
80400;SDS011;69727;53.132;8.230;2023-10-13T12:41:16;21.83;;;5.78;;
80400;SDS011;69727;53.132;8.230;2023-10-13T12:44:02;12.00;;;5.03;;
80400;SDS011;69727;53.132;8.230;2023-10-13T12:46:47;16.92;;;4.88;;
80400;SDS011;69727;53.132;8.230;2023-10-13T12:49:34;16.45;;;5.00;;
80400;SDS011;69727;53.132;8.230;2023-10-13T12:52:12;16.38;;;4.97;;
80400;SDS011;69727;53.132;8.230;2023-10-13T12:54:42;11.27;;;5.85;;
80400;SDS011;69727;53.132;8.230;2023-10-13T12:57:12;13.65;;;5.45;;
80400;SDS011;69727;53.132;8.230;2023-10-13T12:59:41;13.48;;;5.03;;
80400;SDS011;69727;53.132;8.230;2023-10-13T13:02:07;12.65;;;4.63;;
80400;SDS011;69727;53.132;8.230;2023-10-13T13:04:39;13.88;;;5.90;;
80400;SDS011;69727;53.132;8.230;2023-10-13T13:07:09;13.25;;;5.60;;
80400;SDS011;69727;53.132;8.230;2023-10-13T13:09:38;11.50;;;4.70;;
80400;SDS011;69727;53.132;8.230;2023-10-13T13:12:07;12.23;;;5.50;;
80400;SDS011;69727;53.132;8.230;2023-10-13T13:14:32;13.90;;;5.10;;
80400;SDS011;69727;53.132;8.230;2023-10-13T13:17:01;15.95;;;5.95;;
80400;SDS011;69727;53.132;8.230;2023-10-13T13:21:59;12.98;;;5.18;;
80400;SDS011;69727;53.132;8.230;2023-10-13T13:24:24;14.15;;;5.00;;
80400;SDS011;69727;53.132;8.230;2023-10-13T13:26:52;15.73;;;5.22;;
80400;SDS011;69727;53.132;8.230;2023-10-13T13:29:19;14.50;;;4.88;;
80400;SDS011;69727;53.132;8.230;2023-10-13T13:31:45;13.52;;;5.43;;
80400;SDS011;69727;53.132;8.230;2023-10-13T13:34:11;14.05;;;5.15;;
80400;SDS011;69727;53.132;8.230;2023-10-13T13:36:40;12.57;;;5.10;;
80400;SDS011;69727;53.132;8.230;2023-10-13T13:39:20;12.32;;;5.00;;
80400;SDS011;69727;53.132;8.230;2023-10-13T13:41:54;12.10;;;4.90;;
80400;SDS011;69727;53.132;8.230;2023-10-13T13:44:24;10.00;;;4.78;;
80400;SDS011;69727;53.132;8.230;2023-10-13T13:47:00;15.05;;;6.05;;
80400;SDS011;69727;53.132;8.230;2023-10-13T13:49:26;13.73;;;5.55;;
80400;SDS011;69727;53.132;8.230;2023-10-13T13:52:04;13.25;;;5.70;;
80400;SDS011;69727;53.132;8.230;2023-10-13T13:54:30;13.27;;;5.20;;
80400;SDS011;69727;53.132;8.230;2023-10-13T13:56:55;11.73;;;5.07;;
80400;SDS011;69727;53.132;8.230;2023-10-13T13:59:22;17.92;;;5.50;;
80400;SDS011;69727;53.132;8.230;2023-10-13T14:01:47;12.45;;;5.20;;
80400;SDS011;69727;53.132;8.230;2023-10-13T14:04:13;11.75;;;5.28;;
80400;SDS011;69727;53.132;8.230;2023-10-13T14:06:42;10.73;;;5.20;;
80400;SDS011;69727;53.132;8.230;2023-10-13T14:09:09;14.63;;;5.25;;
80400;SDS011;69727;53.132;8.230;2023-10-13T14:11:58;15.02;;;5.75;;
80400;SDS011;69727;53.132;8.230;2023-10-13T14:14:42;10.73;;;5.75;;
80400;SDS011;69727;53.132;8.230;2023-10-13T14:17:15;16.50;;;4.97;;
80400;SDS011;69727;53.132;8.230;2023-10-13T14:19:40;16.13;;;6.03;;
80400;SDS011;69727;53.132;8.230;2023-10-13T14:22:06;14.05;;;5.20;;
80400;SDS011;69727;53.132;8.230;2023-10-13T14:24:32;15.30;;;5.90;;
80400;SDS011;69727;53.132;8.230;2023-10-13T14:27:00;17.50;;;5.38;;
80400;SDS011;69727;53.132;8.230;2023-10-13T14:29:37;15.90;;;5.60;;
80400;SDS011;69727;53.132;8.230;2023-10-13T14:32:06;16.90;;;5.20;;
80400;SDS011;69727;53.132;8.230;2023-10-13T14:34:44;13.80;;;5.20;;
80400;SDS011;69727;53.132;8.230;2023-10-13T14:37:13;15.35;;;5.53;;
80400;SDS011;69727;53.132;8.230;2023-10-13T14:39:39;11.02;;;4.45;;
80400;SDS011;69727;53.132;8.230;2023-10-13T14:42:05;8.75;;;4.50;;
80400;SDS011;69727;53.132;8.230;2023-10-13T14:44:34;11.60;;;4.45;;
80400;SDS011;69727;53.132;8.230;2023-10-13T14:47:03;14.00;;;5.60;;
80400;SDS011;69727;53.132;8.230;2023-10-13T14:49:33;12.38;;;5.43;;
80400;SDS011;69727;53.132;8.230;2023-10-13T14:52:00;16.67;;;4.78;;
80400;SDS011;69727;53.132;8.230;2023-10-13T14:54:26;14.40;;;5.03;;
80400;SDS011;69727;53.132;8.230;2023-10-13T14:57:06;13.88;;;5.35;;
80400;SDS011;69727;53.132;8.230;2023-10-13T14:59:32;14.02;;;5.05;;
80400;SDS011;69727;53.132;8.230;2023-10-13T15:02:03;14.23;;;5.55;;
80400;SDS011;69727;53.132;8.230;2023-10-13T15:04:29;18.27;;;5.50;;
80400;SDS011;69727;53.132;8.230;2023-10-13T15:06:58;12.52;;;5.40;;
80400;SDS011;69727;53.132;8.230;2023-10-13T15:09:27;10.98;;;5.03;;
80400;SDS011;69727;53.132;8.230;2023-10-13T15:11:53;12.93;;;5.10;;
80400;SDS011;69727;53.132;8.230;2023-10-13T15:14:19;12.98;;;5.18;;
80400;SDS011;69727;53.132;8.230;2023-10-13T15:16:45;15.85;;;5.72;;
80400;SDS011;69727;53.132;8.230;2023-10-13T15:19:11;13.70;;;5.65;;
80400;SDS011;69727;53.132;8.230;2023-10-13T15:21:37;13.00;;;5.40;;
80400;SDS011;69727;53.132;8.230;2023-10-13T15:24:05;12.60;;;5.05;;
80400;SDS011;69727;53.132;8.230;2023-10-13T15:26:46;12.82;;;5.15;;
80400;SDS011;69727;53.132;8.230;2023-10-13T15:29:17;12.43;;;6.03;;